Time;durP1;ratioP1;P1;durP2;ratioP2;P2;SDS_P1;SDS_P2;PMS_P1;PMS_P2;Temp;Humidity;BMP_temperature;BMP_pressure;BME280_temperature;BME280_humidity;BME280_pressure;Samples;Min_cycle;Max_cycle;Signal;HPM_P1;HPM_P2
2022/09/27 00:00:26;;;;;;;33.65;26.70;;;;;;;12.92;100.00;99219.09;5119588;27;20046;-67
2022/09/27 00:02:51;;;;;;;31.20;24.25;;;;;;;13.03;100.00;99228.66;5123281;27;20015;-67
2022/09/27 00:05:17;;;;;;;32.30;25.85;;;;;;;12.92;100.00;99202.09;5108211;27;20061;-67
2022/09/27 00:07:43;;;;;;;39.80;27.27;;;;;;;12.98;100.00;99209.47;5125775;27;20398;-66
2022/09/27 00:10:09;;;;;;;35.25;26.38;;;;;;;13.04;100.00;99214.16;5117687;27;20031;-67
2022/09/27 00:12:35;;;;;;;31.13;24.40;;;;;;;13.08;100.00;99215.47;5119981;27;20038;-66
2022/09/27 00:15:01;;;;;;;31.83;23.60;;;;;;;13.05;100.00;99205.06;5111288;27;20020;-67
2022/09/27 00:17:28;;;;;;;29.35;23.88;;;;;;;13.00;100.00;99194.81;5123592;27;20453;-67
2022/09/27 00:19:57;;;;;;;30.23;24.42;;;;;;;12.96;100.00;99192.66;5119410;27;20478;-67
2022/09/27 00:22:23;;;;;;;36.80;25.20;;;;;;;13.02;100.00;99195.50;5115123;27;20503;-65
2022/09/27 00:24:48;;;;;;;31.85;24.20;;;;;;;12.94;100.00;99182.06;5120900;27;20064;-66
2022/09/27 00:27:14;;;;;;;28.33;23.75;;;;;;;13.00;100.00;99196.69;5115687;27;20022;-67
2022/09/27 00:29:39;;;;;;;33.95;23.88;;;;;;;12.98;100.00;99186.09;5125439;27;20474;-67
2022/09/27 00:32:05;;;;;;;30.15;24.42;;;;;;;12.99;100.00;99189.63;5104531;28;20044;-67
2022/09/27 00:34:30;;;;;;;30.42;23.13;;;;;;;12.95;100.00;99178.34;5111680;27;20019;-67
2022/09/27 00:36:56;;;;;;;28.60;22.50;;;;;;;12.99;100.00;99189.63;5118394;27;20055;-66
2022/09/27 00:39:21;;;;;;;35.65;26.15;;;;;;;12.95;100.00;99188.28;5124631;27;20067;-67
2022/09/27 00:41:47;;;;;;;32.20;24.25;;;;;;;12.92;100.00;99178.72;5119383;27;20023;-67
2022/09/27 00:44:28;;;;;;;29.27;24.23;;;;;;;12.89;100.00;99183.59;5119976;27;20028;-65
2022/09/27 00:47:25;;;;;;;27.90;21.95;;;;;;;12.83;100.00;99179.75;5117627;27;20109;-67
2022/09/27 00:50:08;;;;;;;30.08;22.38;;;;;;;12.77;100.00;99175.09;5120704;27;20051;-66
2022/09/27 00:53:01;;;;;;;29.02;23.38;;;;;;;12.74;100.00;99174.63;5108080;27;20043;-67
2022/09/27 00:55:32;;;;;;;31.38;24.77;;;;;;;12.69;100.00;99164.38;5114941;27;20031;-67
2022/09/27 00:57:57;;;;;;;34.95;23.90;;;;;;;12.66;100.00;99155.81;5116778;27;20077;-68
2022/09/27 01:00:23;;;;;;;28.15;22.85;;;;;;;12.64;100.00;99157.88;5114701;27;20527;-67
2022/09/27 01:02:52;;;;;;;31.67;22.50;;;;;;;12.63;100.00;99164.22;5108520;27;20114;-67
2022/09/27 01:05:21;;;;;;;30.63;23.55;;;;;;;12.61;100.00;99175.16;5111984;27;20023;-67
2022/09/27 01:07:46;;;;;;;31.08;21.63;;;;;;;12.53;100.00;99164.47;5108836;27;20026;-67
2022/09/27 01:10:14;;;;;;;25.45;20.80;;;;;;;12.55;100.00;99173.19;5115185;27;20474;-71
2022/09/27 01:13:09;;;;;;;30.05;22.85;;;;;;;12.51;100.00;99173.72;5124059;27;20039;-70
2022/09/27 01:15:49;;;;;;;30.70;22.52;;;;;;;12.46;100.00;99176.09;5113956;27;20035;-70
2022/09/27 01:18:36;;;;;;;26.30;21.50;;;;;;;12.44;100.00;99170.03;5116580;27;20126;-69
2022/09/27 01:21:14;;;;;;;24.90;22.13;;;;;;;12.35;100.00;99158.47;5109469;27;20028;-69
2022/09/27 01:24:06;;;;;;;26.50;21.50;;;;;;;12.37;100.00;99155.59;5118731;27;20062;-69
2022/09/27 01:26:46;;;;;;;25.70;21.92;;;;;;;12.34;100.00;99153.28;5113326;27;20482;-69
2022/09/27 01:29:46;;;;;;;24.67;21.45;;;;;;;12.32;100.00;99150.75;5119670;27;20027;-70
2022/09/27 01:32:20;;;;;;;26.77;20.92;;;;;;;12.26;100.00;99142.56;5117445;27;20050;-71
2022/09/27 01:35:13;;;;;;;25.00;21.35;;;;;;;12.29;100.00;99159.16;5111229;27;20106;-72
2022/09/27 01:38:12;;;;;;;24.58;20.85;;;;;;;12.26;100.00;99151.47;5123285;27;20080;-71
2022/09/27 01:40:47;;;;;;;27.08;20.75;;;;;;;12.27;100.00;99147.75;5124099;27;20124;-70
2022/09/27 01:43:29;;;;;;;27.08;20.73;;;;;;;12.24;100.00;99136.50;5119714;27;20051;-70
2022/09/27 01:46:07;;;;;;;30.02;21.90;;;;;;;12.21;100.00;99134.16;5118155;28;20033;-71
2022/09/27 01:48:40;;;;;;;27.55;21.65;;;;;;;12.22;100.00;99128.63;5117624;27;20027;-71
2022/09/27 01:51:15;;;;;;;27.75;22.25;;;;;;;12.16;100.00;99115.06;5114409;27;20026;-66
2022/09/27 01:53:45;;;;;;;29.02;20.63;;;;;;;12.20;100.00;99124.44;5115718;28;20059;-72
2022/09/27 01:56:17;;;;;;;27.95;22.35;;;;;;;12.17;100.00;99124.78;5121842;27;20037;-71
2022/09/27 01:58:52;;;;;;;27.90;21.40;;;;;;;11.93;100.00;99087.25;5119536;27;20890;-71
2022/09/27 02:01:21;;;;;;;26.27;21.50;;;;;;;11.96;100.00;99100.34;5119499;27;20030;-71
2022/09/27 02:03:51;;;;;;;26.50;21.67;;;;;;;12.03;100.00;99120.13;5115969;27;20042;-71
2022/09/27 02:06:24;;;;;;;26.42;21.33;;;;;;;11.99;100.00;99118.81;5121228;27;20169;-71
2022/09/27 02:09:02;;;;;;;34.00;21.55;;;;;;;11.96;100.00;99119.16;5114075;27;20066;-72
2022/09/27 02:11:27;;;;;;;27.40;21.42;;;;;;;11.89;100.00;99108.25;5120062;27;20119;-70
2022/09/27 02:14:02;;;;;;;24.95;21.27;;;;;;;11.93;100.00;99119.50;5117544;27;20230;-72
2022/09/27 02:16:48;;;;;;;27.65;21.90;;;;;;;11.91;100.00;99116.13;5118790;27;20031;-70
2022/09/27 02:19:28;;;;;;;27.33;21.38;;;;;;;11.78;100.00;99097.88;5125680;27;20019;-72
2022/09/27 02:21:58;;;;;;;27.17;21.55;;;;;;;11.89;100.00;99107.41;5122347;27;20023;-71
2022/09/27 02:24:36;;;;;;;29.70;22.08;;;;;;;11.84;100.00;99104.41;5119494;27;20035;-70
2022/09/27 02:27:28;;;;;;;26.98;20.95;;;;;;;11.85;100.00;99103.38;5133105;27;20046;-72
2022/09/27 02:30:09;;;;;;;21.92;16.83;;;;;;;11.87;100.00;99098.69;5120866;27;20031;-70
2022/09/27 02:32:35;;;;;;;18.95;16.95;;;;;;;11.88;100.00;99098.53;5126917;27;20019;-73
2022/09/27 02:35:07;;;;;;;18.50;16.60;;;;;;;11.90;100.00;99098.34;5118949;27;20099;-71
2022/09/27 02:37:33;;;;;;;19.80;15.48;;;;;;;11.89;100.00;99083.22;5130718;27;20769;-72
2022/09/27 02:39:59;;;;;;;19.50;15.90;;;;;;;11.99;100.00;99091.94;5119716;27;20042;-71
2022/09/27 02:42:26;;;;;;;20.55;15.15;;;;;;;12.01;100.00;99084.53;5120131;27;20047;-71
2022/09/27 02:44:52;;;;;;;18.70;15.02;;;;;;;12.04;100.00;99081.50;5117743;27;20145;-72
2022/09/27 02:47:39;;;;;;;20.30;15.20;;;;;;;12.06;100.00;99084.88;5117842;27;20106;-72
2022/09/27 02:50:50;;;;;;;18.77;15.35;;;;;;;12.06;100.00;99083.00;5121876;27;20031;-72
2022/09/27 02:53:24;;;;;;;17.02;15.25;;;;;;;12.05;100.00;99078.63;5106151;27;20048;-72
2022/09/27 02:56:15;;;;;;;22.65;15.02;;;;;;;12.05;100.00;99075.94;5119421;27;20063;-73
2022/09/27 02:58:59;;;;;;;19.05;14.00;;;;;;;12.06;100.00;99074.94;5119322;27;20359;-72
2022/09/27 03:01:37;;;;;;;15.45;13.85;;;;;;;12.04;100.00;99071.59;5126091;27;20023;-71
2022/09/27 03:04:14;;;;;;;17.15;13.80;;;;;;;12.04;100.00;99076.97;5118281;27;20038;-72
2022/09/27 03:06:44;;;;;;;18.38;13.23;;;;;;;12.03;100.00;99077.16;5125828;27;20489;-71
2022/09/27 03:09:39;;;;;;;15.27;13.65;;;;;;;12.00;100.00;99074.81;5122510;27;20035;-73
2022/09/27 03:12:05;;;;;;;15.65;12.60;;;;;;;11.91;100.00;99063.25;5118339;27;20509;-73
2022/09/27 03:14:30;;;;;;;14.18;12.73;;;;;;;11.95;100.00;99069.94;5120408;27;20031;-73
2022/09/27 03:16:56;;;;;;;15.15;13.15;;;;;;;11.95;100.00;99066.41;5126195;27;20030;-72
2022/09/27 03:19:23;;;;;;;15.05;12.77;;;;;;;11.94;100.00;99070.13;5121803;27;20038;-72
2022/09/27 03:21:49;;;;;;;15.45;13.15;;;;;;;11.86;100.00;99054.84;5126539;27;20023;-72
2022/09/27 03:24:14;;;;;;;16.95;15.15;;;;;;;11.86;100.00;99062.91;5123559;27;20042;-73
2022/09/27 03:26:40;;;;;;;18.48;16.52;;;;;;;11.89;100.00;99064.41;5122702;27;20060;-72
2022/09/27 03:29:05;;;;;;;19.45;16.80;;;;;;;11.83;100.00;99059.75;5120945;27;20609;-72
2022/09/27 03:31:31;;;;;;;20.48;17.00;;;;;;;11.78;100.00;99062.97;5120234;27;20147;-72
2022/09/27 03:33:56;;;;;;;21.52;17.38;;;;;;;11.74;100.00;99061.63;5123431;27;20035;-72
2022/09/27 03:36:22;;;;;;;19.85;16.83;;;;;;;11.75;100.00;99068.69;5122040;27;20027;-73
2022/09/27 03:38:47;;;;;;;22.60;18.70;;;;;;;11.65;100.00;99056.44;5125078;27;20160;-73
2022/09/27 03:41:13;;;;;;;20.38;17.02;;;;;;;11.65;100.00;99051.94;5124730;27;20446;-72
2022/09/27 03:43:38;;;;;;;20.73;18.20;;;;;;;11.57;100.00;99052.75;5122846;27;20058;-73
2022/09/27 03:46:04;;;;;;;23.52;17.83;;;;;;;11.54;100.00;99055.78;5124964;27;20031;-74
2022/09/27 03:48:30;;;;;;;21.55;18.70;;;;;;;11.54;100.00;99058.47;5117384;27;20023;-73
2022/09/27 03:50:56;;;;;;;20.73;17.85;;;;;;;11.48;100.00;99064.50;5128977;27;20027;-73
2022/09/27 03:53:32;;;;;;;26.58;18.58;;;;;;;11.39;100.00;99060.16;5126745;27;20073;-74
2022/09/27 03:55:58;;;;;;;24.10;18.08;;;;;;;11.40;100.00;99069.91;5124120;27;20482;-74
2022/09/27 03:58:24;;;;;;;23.55;18.70;;;;;;;11.37;100.00;99064.03;5122353;27;20027;-72
2022/09/27 04:00:49;;;;;;;23.33;19.00;;;;;;;11.33;100.00;99058.19;5132069;27;20027;-71
2022/09/27 04:03:16;;;;;;;26.38;19.92;;;;;;;11.29;100.00;99053.31;5121507;27;20046;-74
2022/09/27 04:05:41;;;;;;;25.30;18.90;;;;;;;11.21;100.00;99043.41;5120743;27;20110;-72
2022/09/27 04:08:09;;;;;;;23.73;19.60;;;;;;;11.28;100.00;99059.66;5121025;27;20023;-73
2022/09/27 04:10:35;;;;;;;25.33;20.10;;;;;;;11.26;100.00;99053.66;5117533;27;20026;-73
2022/09/27 04:13:01;;;;;;;25.48;20.95;;;;;;;11.24;100.00;99045.78;5120508;27;20031;-73
2022/09/27 04:15:26;;;;;;;26.20;19.80;;;;;;;11.24;100.00;99047.59;5118295;27;20057;-72
2022/09/27 04:17:52;;;;;;;25.38;20.15;;;;;;;11.12;100.00;99028.34;5117305;27;20026;-74
2022/09/27 04:20:17;;;;;;;26.73;20.05;;;;;;;11.23;100.00;99051.31;5120927;27;20031;-73
2022/09/27 04:22:44;;;;;;;27.08;21.00;;;;;;;11.20;100.00;99044.44;5123333;27;20424;-72
2022/09/27 04:25:10;;;;;;;27.58;21.70;;;;;;;11.18;100.00;99035.72;5118478;27;20061;-73
2022/09/27 04:27:36;;;;;;;29.15;21.38;;;;;;;11.17;100.00;99028.69;5116895;27;20568;-74
2022/09/27 04:30:03;;;;;;;32.08;20.58;;;;;;;11.18;100.00;99024.13;5113125;27;20020;-74
2022/09/27 04:32:28;;;;;;;28.33;20.05;;;;;;;11.14;100.00;99012.06;5112709;27;20431;-73
2022/09/27 04:37:38;;;;;;;25.02;16.50;;;;;;;11.22;100.00;99018.25;5115877;27;20066;-74
2022/09/27 04:40:04;;;;;;;22.30;16.50;;;;;;;11.23;100.00;99017.22;5121224;27;20059;-73
2022/09/27 04:42:30;;;;;;;26.20;14.57;;;;;;;11.31;100.00;99021.75;5120612;27;20034;-74
2022/09/27 04:44:55;;;;;;;23.80;14.32;;;;;;;11.34;100.00;99024.09;5116666;27;20015;-73
2022/09/27 04:47:21;;;;;;;17.17;12.00;;;;;;;11.37;100.00;99026.44;5124152;27;20035;-74
2022/09/27 04:49:47;;;;;;;17.25;14.00;;;;;;;11.42;100.00;99021.41;5122141;27;20138;-73
2022/09/27 04:52:14;;;;;;;16.67;13.20;;;;;;;11.45;100.00;99016.53;5120114;27;20051;-74
2022/09/27 04:54:40;;;;;;;15.98;12.35;;;;;;;11.52;100.00;99025.56;5110760;27;20041;-74
2022/09/27 04:57:06;;;;;;;15.43;11.93;;;;;;;11.48;100.00;99012.66;5119719;27;20047;-73
2022/09/27 04:59:31;;;;;;;16.17;11.98;;;;;;;11.54;100.00;99011.97;5120240;27;20092;-74
2022/09/27 05:02:00;;;;;;;15.32;11.57;;;;;;;11.63;100.00;99024.41;5106134;27;20870;-73
2022/09/27 05:04:26;;;;;;;15.32;11.25;;;;;;;11.64;100.00;99015.31;5124183;27;20057;-74
2022/09/27 05:06:52;;;;;;;15.13;11.85;;;;;;;11.63;100.00;99010.13;5115241;27;20490;-73
2022/09/27 05:09:18;;;;;;;14.65;9.63;;;;;;;11.74;100.00;99024.03;5122893;27;20023;-67
2022/09/27 05:11:43;;;;;;;13.65;11.18;;;;;;;11.77;100.00;99033.59;5114705;27;20482;-69
2022/09/27 05:14:09;;;;;;;15.80;11.68;;;;;;;11.78;100.00;99020.00;5116475;27;20039;-69
2022/09/27 05:16:37;;;;;;;16.45;10.93;;;;;;;11.74;100.00;99009.75;5120178;27;20038;-68
2022/09/27 05:19:03;;;;;;;12.63;10.38;;;;;;;11.77;100.00;99012.91;5122036;27;20478;-68
2022/09/27 05:21:30;;;;;;;15.20;10.75;;;;;;;11.73;100.00;99003.53;5113048;27;20051;-69
2022/09/27 05:23:57;;;;;;;14.02;9.88;;;;;;;11.88;100.00;99026.00;5115595;27;20030;-68
2022/09/27 05:26:25;;;;;;;13.98;11.13;;;;;;;11.93;100.00;99028.16;5110932;27;20035;-69
2022/09/27 05:28:51;;;;;;;17.90;9.88;;;;;;;11.96;100.00;99017.88;5117831;27;20047;-68
2022/09/27 05:31:16;;;;;;;12.68;10.43;;;;;;;11.90;100.00;99004.31;5116998;27;20551;-67
2022/09/27 05:33:41;;;;;;;18.30;10.90;;;;;;;12.02;100.00;99019.88;5114531;27;20482;-68
2022/09/27 05:36:07;;;;;;;18.10;11.35;;;;;;;12.07;100.00;99012.13;5119436;27;20486;-68
2022/09/27 05:38:34;;;;;;;16.80;11.73;;;;;;;12.01;100.00;98990.47;5111806;27;20057;-68
2022/09/27 05:40:59;;;;;;;16.35;12.57;;;;;;;12.18;100.00;98992.06;5122845;27;20039;-67
2022/09/27 05:43:25;;;;;;;16.70;12.43;;;;;;;12.26;100.00;98984.81;5100298;27;20104;-67
2022/09/27 05:45:51;;;;;;;17.20;12.40;;;;;;;12.32;100.00;98967.13;5122647;27;20026;-68
2022/09/27 05:48:17;;;;;;;16.17;13.02;;;;;;;12.39;100.00;98966.25;5120234;27;20389;-68
2022/09/27 05:50:43;;;;;;;19.65;12.98;;;;;;;12.51;100.00;98963.97;5122544;27;20046;-68
2022/09/27 05:53:09;;;;;;;19.58;13.90;;;;;;;12.55;100.00;98952.66;5117394;27;20035;-68
2022/09/27 05:55:36;;;;;;;21.35;15.52;;;;;;;12.64;100.00;98943.50;5112152;27;20138;-67
2022/09/27 05:58:07;;;;;;;22.13;14.60;;;;;;;12.78;100.00;98953.47;5113924;27;20733;-67
2022/09/27 06:00:33;;;;;;;21.08;16.02;;;;;;;12.91;100.00;98959.06;5118793;28;20423;-67
2022/09/27 06:03:03;;;;;;;22.77;16.08;;;;;;;12.97;100.00;98960.19;5118546;28;20027;-67
2022/09/27 06:05:34;;;;;;;23.77;16.10;;;;;;;13.08;100.00;98957.09;5111242;28;20038;-67
2022/09/27 06:08:11;;;;;;;24.90;16.88;;;;;;;13.15;100.00;98963.41;5116129;27;20027;-68
2022/09/27 06:10:37;;;;;;;22.05;16.05;;;;;;;13.18;100.00;98957.66;5118909;27;20046;-67
2022/09/27 06:13:05;;;;;;;25.23;17.17;;;;;;;13.24;100.00;98963.16;5118490;27;20038;-66
2022/09/27 06:15:32;;;;;;;25.45;17.17;;;;;;;13.25;100.00;98961.28;5117660;28;20035;-67
2022/09/27 06:18:04;;;;;;;30.70;17.75;;;;;;;13.28;100.00;98967.13;5120815;27;20023;-67
2022/09/27 06:20:30;;;;;;;26.98;17.85;;;;;;;13.32;100.00;98962.22;5110749;27;20413;-67
2022/09/27 06:23:03;;;;;;;32.58;18.10;;;;;;;13.29;100.00;98958.03;5116508;28;20530;-66
2022/09/27 06:25:29;;;;;;;29.33;19.10;;;;;;;13.22;100.00;98943.63;5118157;27;20481;-67
2022/09/27 06:27:54;;;;;;;28.55;18.92;;;;;;;13.34;100.00;98949.41;5117710;27;20106;-67
2022/09/27 06:30:20;;;;;;;27.05;18.65;;;;;;;13.47;100.00;98969.28;5118314;27;20114;-68
2022/09/27 06:32:45;;;;;;;26.63;19.77;;;;;;;13.56;100.00;98965.47;5118115;28;20042;-67
2022/09/27 06:35:10;;;;;;;24.88;19.52;;;;;;;13.62;100.00;98977.34;5118022;27;20034;-67
2022/09/27 06:37:36;;;;;;;26.85;20.25;;;;;;;13.71;100.00;98981.63;5120064;27;20034;-67
2022/09/27 06:40:02;;;;;;;27.45;19.77;;;;;;;13.77;100.00;98980.88;5106932;28;20043;-66
2022/09/27 06:42:29;;;;;;;26.35;19.85;;;;;;;13.80;100.00;98968.88;5119176;28;20550;-67
2022/09/27 06:44:54;;;;;;;28.13;20.92;;;;;;;13.86;100.00;98951.97;5119017;27;20485;-66
2022/09/27 06:47:20;;;;;;;34.10;22.30;;;;;;;13.98;100.00;98951.28;5125324;27;20060;-67
2022/09/27 06:49:45;;;;;;;26.10;19.73;;;;;;;14.07;100.00;98950.16;5112992;27;20032;-67
2022/09/27 06:52:11;;;;;;;26.75;20.70;;;;;;;14.14;100.00;98948.38;5123695;27;20035;-66
2022/09/27 06:54:36;;;;;;;25.60;19.70;;;;;;;14.23;100.00;98955.34;5118505;27;20028;-68
2022/09/27 06:57:02;;;;;;;26.63;19.50;;;;;;;14.29;100.00;98954.59;5118190;27;20092;-67
2022/09/27 07:02:12;;;;;;;25.17;19.58;;;;;;;14.44;100.00;98965.31;5122995;27;20030;-66
2022/09/27 07:04:38;;;;;;;23.98;19.20;;;;;;;14.44;100.00;98955.34;5122052;27;20136;-68
2022/09/27 07:07:03;;;;;;;26.80;20.17;;;;;;;14.56;100.00;98967.31;5120504;27;20083;-66
2022/09/27 07:09:29;;;;;;;22.92;19.35;;;;;;;14.64;100.00;98969.06;5113731;27;20103;-66
2022/09/27 07:11:54;;;;;;;26.35;20.20;;;;;;;14.67;100.00;98957.88;5119754;27;20402;-66
2022/09/27 07:14:20;;;;;;;23.00;19.52;;;;;;;14.76;100.00;98971.03;5112718;27;20050;-66
2022/09/27 07:16:46;;;;;;;22.17;18.25;;;;;;;14.83;100.00;98976.50;5122503;27;20043;-68
2022/09/27 07:19:13;;;;;;;22.60;19.65;;;;;;;14.78;100.00;98968.97;5117893;27;20065;-67
2022/09/27 07:21:38;;;;;;;27.23;20.52;;;;;;;14.86;100.00;98971.53;5122983;27;20108;-67
2022/09/27 07:24:04;;;;;;;25.27;19.73;;;;;;;14.89;100.00;98968.44;5112424;27;20121;-67
2022/09/27 07:26:29;;;;;;;25.23;20.30;;;;;;;14.86;100.00;98958.03;5110129;27;20070;-67
2022/09/27 07:28:55;;;;;;;22.48;19.40;;;;;;;14.95;100.00;98973.06;5122138;27;20031;-67
2022/09/27 07:31:21;;;;;;;22.38;18.58;;;;;;;14.94;100.00;98970.56;5114646;27;20092;-66
2022/09/27 07:33:47;;;;;;;23.15;18.90;;;;;;;15.02;100.00;98973.09;5116284;27;20024;-67
2022/09/27 07:36:12;;;;;;;21.75;19.08;;;;;;;15.04;100.00;98980.00;5114546;27;20019;-66
2022/09/27 07:38:38;;;;;;;24.33;18.50;;;;;;;15.08;100.00;98983.97;5115436;27;20097;-67
2022/09/27 07:41:12;;;;;;;22.80;18.17;;;;;;;15.12;100.00;98981.72;5119486;27;20057;-68
2022/09/27 07:43:39;;;;;;;20.45;18.25;;;;;;;15.14;100.00;98977.78;5109564;27;20398;-67
2022/09/27 07:46:05;;;;;;;22.27;18.40;;;;;;;15.07;100.00;98965.25;5122476;27;20035;-66
2022/09/27 07:48:31;;;;;;;21.42;17.77;;;;;;;15.18;100.00;98979.06;5111035;27;20027;-66
2022/09/27 07:50:56;;;;;;;21.02;17.40;;;;;;;15.21;100.00;98970.56;5118358;27;20031;-66
2022/09/27 07:53:23;;;;;;;24.63;18.40;;;;;;;15.21;100.00;98965.16;5124107;27;20043;-66
2022/09/27 07:55:54;;;;;;;22.95;19.05;;;;;;;15.23;100.00;98963.13;5123842;27;20385;-67
2022/09/27 07:58:21;;;;;;;23.58;18.95;;;;;;;15.25;100.00;98961.03;5124575;27;20023;-65
2022/09/27 08:00:46;;;;;;;24.35;20.27;;;;;;;15.33;100.00;98962.75;5115350;27;20019;-66
2022/09/27 08:03:14;;;;;;;23.25;19.25;;;;;;;15.39;100.00;98970.94;5106596;27;20019;-67
2022/09/27 08:05:42;;;;;;;22.27;18.23;;;;;;;15.43;100.00;98952.47;5126365;27;20033;-65
2022/09/27 08:08:07;;;;;;;26.23;18.33;;;;;;;15.48;100.00;98950.81;5126975;27;20034;-68
2022/09/27 08:10:34;;;;;;;22.90;18.42;;;;;;;15.58;100.00;98955.88;5126780;27;20035;-66
2022/09/27 08:13:04;;;;;;;23.55;19.80;;;;;;;15.69;100.00;98955.31;5115149;27;20043;-67
2022/09/27 08:15:39;;;;;;;23.80;19.08;;;;;;;15.78;100.00;98943.28;5113002;27;20042;-67
2022/09/27 08:18:08;;;;;;;25.88;20.15;;;;;;;16.31;100.00;98944.31;5126612;27;20438;-66
2022/09/27 08:20:33;;;;;;;23.60;19.33;;;;;;;16.47;100.00;98941.28;5123886;27;20666;-67
2022/09/27 08:22:59;;;;;;;21.85;18.25;;;;;;;16.94;100.00;98943.81;5126854;27;20023;-65
2022/09/27 08:25:24;;;;;;;19.70;17.23;;;;;;;17.15;100.00;98947.13;5111681;27;20034;-67
2022/09/27 08:28:03;;;;;;;20.80;16.50;;;;;;;17.24;100.00;98937.75;5105758;28;20035;-67
2022/09/27 08:30:31;;;;;;;17.42;15.15;;;;;;;17.37;100.00;98945.00;5105623;28;20118;-66
2022/09/27 08:33:02;;;;;;;15.70;14.00;;;;;;;17.47;100.00;98942.72;5105623;28;20099;-66
2022/09/27 08:35:28;;;;;;;17.85;14.90;;;;;;;17.39;100.00;98930.22;5116694;27;20528;-65
2022/09/27 08:37:55;;;;;;;19.83;15.23;;;;;;;17.49;100.00;98949.63;5118824;27;20498;-67
2022/09/27 08:40:26;;;;;;;16.90;14.93;;;;;;;17.45;100.00;98958.38;5121642;27;20015;-66
2022/09/27 08:43:39;;;;;;;16.52;14.85;;;;;;;17.38;100.00;98960.25;5105607;28;20068;-67
2022/09/27 08:46:40;;;;;;;15.20;13.60;;;;;;;17.34;100.00;98953.56;5110869;27;20047;-67
2022/09/27 08:49:22;;;;;;;18.42;15.20;;;;;;;17.23;100.00;98943.38;5116525;27;20031;-67
2022/09/27 08:51:52;;;;;;;15.23;13.20;;;;;;;17.21;100.00;98945.44;5113688;27;20407;-67
2022/09/27 08:54:28;;;;;;;14.80;13.18;;;;;;;17.15;100.00;98949.81;5117812;27;20471;-65
2022/09/27 08:57:02;;;;;;;14.15;12.35;;;;;;;17.08;100.00;98948.16;5105512;28;20078;-65
2022/09/27 08:59:35;;;;;;;14.27;12.88;;;;;;;17.03;100.00;98948.78;5104004;28;20027;-67
2022/09/27 09:02:02;;;;;;;15.43;11.40;;;;;;;16.95;100.00;98934.63;5105751;28;20020;-67
2022/09/27 09:04:37;;;;;;;14.63;12.13;;;;;;;16.98;100.00;98936.91;5104882;28;20514;-67
2022/09/27 09:07:24;;;;;;;14.43;12.77;;;;;;;16.96;100.00;98941.72;5106729;28;20047;-65
2022/09/27 09:10:14;;;;;;;13.70;12.13;;;;;;;16.93;100.00;98940.25;5125766;27;20019;-66
2022/09/27 09:13:12;;;;;;;18.48;12.38;;;;;;;16.88;100.00;98941.91;5112201;27;20035;-66
2022/09/27 09:15:53;;;;;;;16.40;12.25;;;;;;;16.92;100.00;98945.88;5125612;27;20478;-65
2022/09/27 09:18:54;;;;;;;13.90;12.13;;;;;;;17.00;100.00;98945.69;5115243;27;20087;-65
2022/09/27 09:21:43;;;;;;;15.00;13.40;;;;;;;16.98;100.00;98945.03;5125899;27;20071;-67
2022/09/27 09:24:35;;;;;;;16.02;13.35;;;;;;;17.00;100.00;98954.66;5098161;27;20431;-67
2022/09/27 09:27:03;;;;;;;14.30;12.80;;;;;;;16.98;100.00;98943.19;5112798;27;20084;-66
2022/09/27 09:29:37;;;;;;;14.77;11.30;;;;;;;16.99;100.00;98946.72;5105457;27;20126;-66
2022/09/27 09:32:15;;;;;;;12.93;11.45;;;;;;;17.01;100.00;98936.50;5119735;27;20035;-67
2022/09/27 09:34:53;;;;;;;14.90;12.32;;;;;;;17.06;100.00;98936.72;5108139;27;20116;-66
2022/09/27 09:37:37;;;;;;;13.98;11.63;;;;;;;17.16;100.00;98929.00;5118440;27;20023;-67
2022/09/27 09:40:19;;;;;;;14.07;11.88;;;;;;;17.29;100.00;98931.69;5114828;27;20086;-67
2022/09/27 09:43:12;;;;;;;11.68;10.48;;;;;;;17.36;100.00;98929.78;5116275;27;20059;-66
2022/09/27 09:45:47;;;;;;;11.27;10.07;;;;;;;17.40;100.00;98922.91;5122988;27;20023;-66
2022/09/27 09:48:24;;;;;;;;;;;;;;;17.39;100.00;98929.38;5119968;27;20032;-66
2022/09/27 09:50:55;;;;;;;11.55;10.35;;;;;;;17.43;100.00;98923.34;5113752;28;20386;-66
2022/09/27 09:53:29;;;;;;;11.95;10.70;;;;;;;17.51;100.00;98919.59;5123545;27;20057;-67
2022/09/27 09:56:02;;;;;;;12.57;11.32;;;;;;;17.60;100.00;98916.41;5125929;27;20031;-66
2022/09/27 09:58:43;;;;;;;13.05;11.63;;;;;;;17.69;100.00;98919.72;5117197;27;20023;-69
2022/09/27 10:01:26;;;;;;;13.00;11.70;;;;;;;17.69;100.00;98917.00;5113593;27;20030;-70
2022/09/27 10:03:54;;;;;;;13.48;12.07;;;;;;;17.70;100.00;98910.53;5121285;28;20509;-68
2022/09/27 10:06:19;;;;;;;12.98;11.00;;;;;;;17.78;100.00;98903.00;5110474;28;20024;-68
2022/09/27 10:08:46;;;;;;;12.32;11.18;;;;;;;17.82;100.00;98901.53;5110786;28;20023;-69
2022/09/27 10:11:38;;;;;;;12.43;11.13;;;;;;;17.85;99.42;98900.25;5106902;27;20089;-69
2022/09/27 10:14:12;;;;;;;12.65;11.32;;;;;;;17.83;99.47;98892.34;5107219;28;20038;-69
2022/09/27 10:16:41;;;;;;;12.52;11.32;;;;;;;17.86;98.90;98902.75;5123298;28;20042;-68
2022/09/27 10:19:08;;;;;;;13.13;11.73;;;;;;;17.83;99.13;98905.91;5119045;27;20015;-70
2022/09/27 10:21:38;;;;;;;12.45;11.13;;;;;;;17.83;99.32;98905.06;5111052;27;20049;-69
2022/09/27 10:24:13;;;;;;;12.50;11.20;;;;;;;17.90;99.16;98901.28;5121966;27;20035;-70
2022/09/27 10:26:43;;;;;;;13.43;11.60;;;;;;;17.84;99.09;98894.00;5108115;28;20081;-69
2022/09/27 10:29:36;;;;;;;12.27;11.07;;;;;;;17.86;99.81;98882.94;5128361;27;20054;-70
2022/09/27 10:32:04;;;;;;;12.45;11.20;;;;;;;17.85;99.89;98884.81;5110710;27;20051;-70
2022/09/27 10:34:39;;;;;;;14.50;12.60;;;;;;;17.89;99.09;98880.63;5110871;27;20093;-71
2022/09/27 10:37:11;;;;;;;14.80;11.52;;;;;;;17.98;98.18;98892.91;5119156;27;20478;-69
2022/09/27 10:39:37;;;;;;;13.98;11.18;;;;;;;17.96;98.48;98888.75;5108044;28;20027;-69
2022/09/27 10:42:32;;;;;;;13.75;11.52;;;;;;;17.92;98.47;98887.50;5111231;27;20024;-69
2022/09/27 10:44:57;;;;;;;;;;;;;;;17.85;98.61;98884.81;5108523;27;20130;-69
2022/09/27 10:47:25;;;;;;;13.68;11.88;;;;;;;17.83;98.87;98875.22;5119037;27;20013;-69
2022/09/27 10:50:01;;;;;;;12.50;11.23;;;;;;;17.75;99.27;98864.63;5126188;27;20475;-69
2022/09/27 10:52:27;;;;;;;11.73;10.52;;;;;;;17.81;99.68;98859.19;5122795;27;20035;-68
2022/09/27 10:55:06;;;;;;;14.50;11.77;;;;;;;17.86;100.00;98853.94;5113195;27;20035;-70
2022/09/27 10:57:32;;;;;;;13.35;11.95;;;;;;;17.91;99.55;98853.28;5123487;27;20890;-68
2022/09/27 11:00:06;;;;;;;12.05;10.68;;;;;;;18.02;100.00;98855.31;5110346;27;20114;-68
2022/09/27 11:02:36;;;;;;;12.50;10.23;;;;;;;18.09;100.00;98827.09;5122144;27;20039;-69
2022/09/27 11:05:29;;;;;;;12.57;11.27;;;;;;;18.35;97.53;98836.94;5122313;27;20043;-70
2022/09/27 11:07:57;;;;;;;11.65;10.38;;;;;;;18.46;97.19;98836.25;5121873;27;20027;-70
2022/09/27 11:10:27;;;;;;;11.60;10.40;;;;;;;18.49;96.69;98824.09;5115759;27;20034;-66
2022/09/27 11:13:16;;;;;;;12.05;10.88;;;;;;;18.49;96.37;98824.09;5116413;27;20459;-64
2022/09/27 11:16:00;;;;;;;10.85;9.63;;;;;;;18.48;95.56;98817.88;5122973;27;20599;-67
2022/09/27 11:18:43;;;;;;;10.75;9.73;;;;;;;18.51;96.13;98822.00;5118505;27;20470;-67
2022/09/27 11:21:39;;;;;;;11.75;10.50;;;;;;;18.55;96.89;98802.34;5125049;27;20038;-65
2022/09/27 11:24:37;;;;;;;11.95;9.73;;;;;;;18.68;95.34;98802.22;5119906;27;20038;-66
2022/09/27 11:27:20;;;;;;;10.30;9.23;;;;;;;18.78;95.53;98801.72;5114411;27;20075;-67
2022/09/27 11:29:49;;;;;;;8.63;7.65;;;;;;;18.90;94.92;98794.50;5124500;27;20027;-66
2022/09/27 11:32:43;;;;;;;8.95;8.05;;;;;;;18.99;93.51;98787.72;5122301;27;20023;-66
2022/09/27 11:35:20;;;;;;;8.90;8.00;;;;;;;19.15;92.38;98779.78;5115098;27;20031;-66
2022/09/27 11:38:04;;;;;;;9.15;6.72;;;;;;;19.21;91.03;98775.31;5123420;27;20035;-65